createdAt,value
2023-02-26T00:01:49.209Z,98291.94
2023-02-26T00:04:17.090Z,98311.03
2023-02-26T00:06:56.159Z,98323.66
2023-02-26T00:09:25.412Z,98325.47
2023-02-26T00:11:56.503Z,98318.16
2023-02-26T00:14:25.911Z,98307.81
2023-02-26T00:17:30.901Z,98306.75
2023-02-26T00:20:00.327Z,98307.88
2023-02-26T00:22:28.561Z,98306.34
2023-02-26T00:24:56.690Z,98310.28
2023-02-26T00:27:24.512Z,98318.50
2023-02-26T00:29:53.007Z,98337.53
2023-02-26T00:32:21.204Z,98341.28
2023-02-26T00:34:50.101Z,98339.06
2023-02-26T00:38:02.218Z,98331.44
2023-02-26T00:40:50.308Z,98327.84
2023-02-26T00:43:26.865Z,98318.16
2023-02-26T00:46:26.857Z,98315.97
2023-02-26T00:49:15.440Z,98311.94
2023-02-26T00:52:05.071Z,98328.81
2023-02-26T00:54:33.056Z,98334.38
2023-02-26T00:57:01.227Z,98337.38
2023-02-26T00:59:30.831Z,98347.63
2023-02-26T01:01:58.616Z,98346.44
2023-02-26T01:04:27.074Z,98335.34
2023-02-26T01:06:57.860Z,98329.00
2023-02-26T01:09:37.716Z,98335.34
2023-02-26T01:12:11.425Z,98325.88
2023-02-26T01:14:40.508Z,98319.03
2023-02-26T01:17:33.206Z,98317.19
2023-02-26T01:20:19.843Z,98327.97
2023-02-26T01:22:57.911Z,98321.63
2023-02-26T01:25:54.904Z,98324.72
2023-02-26T01:28:24.334Z,98333.38
2023-02-26T01:30:59.620Z,98334.31
2023-02-26T01:33:59.176Z,98332.34
2023-02-26T01:36:36.757Z,98338.94
2023-02-26T01:39:31.824Z,98333.28
2023-02-26T01:42:24.055Z,98337.91
2023-02-26T01:44:59.989Z,98314.78
2023-02-26T01:47:58.746Z,98322.16
2023-02-26T01:50:32.901Z,98319.31
2023-02-26T01:53:24.417Z,98318.88
2023-02-26T01:56:17.917Z,98312.56
2023-02-26T01:58:50.527Z,98320.31
2023-02-26T02:01:18.238Z,98325.91
2023-02-26T02:03:47.012Z,98328.84
2023-02-26T02:06:24.892Z,98329.00
2023-02-26T02:08:52.849Z,98318.72
2023-02-26T02:11:21.777Z,98323.69
2023-02-26T02:14:17.464Z,98337.13
2023-02-26T02:17:33.597Z,98329.69
2023-02-26T02:20:41.442Z,98342.00
2023-02-26T02:23:48.223Z,98334.38
2023-02-26T02:26:54.084Z,98341.66
2023-02-26T02:29:49.541Z,98339.09
2023-02-26T02:33:01.987Z,98336.81
2023-02-26T02:35:46.601Z,98340.47
2023-02-26T02:38:27.753Z,98344.56
2023-02-26T02:41:20.707Z,98338.91
2023-02-26T02:43:51.832Z,98340.47
2023-02-26T02:46:30.622Z,98351.34
2023-02-26T02:49:35.998Z,98360.25
2023-02-26T02:52:52.900Z,98355.97
2023-02-26T02:55:30.202Z,98367.69
2023-02-26T02:58:13.441Z,98364.69
2023-02-26T03:00:55.534Z,98375.25
2023-02-26T03:03:58.287Z,98367.34
2023-02-26T03:06:27.118Z,98372.81
2023-02-26T03:09:01.894Z,98386.91
2023-02-26T03:11:32.948Z,98394.06
2023-02-26T03:14:00.993Z,98385.13
2023-02-26T03:17:17.798Z,98391.75
2023-02-26T03:20:26.851Z,98402.22
2023-02-26T03:23:40.945Z,98403.31
2023-02-26T03:26:16.010Z,98406.84
2023-02-26T03:29:05.425Z,98410.25
2023-02-26T03:31:55.781Z,98409.97
2023-02-26T03:34:42.292Z,98408.91
2023-02-26T03:37:22.361Z,98415.47
2023-02-26T03:39:59.543Z,98415.59
2023-02-26T03:42:46.607Z,98422.81
2023-02-26T03:45:31.014Z,98417.16
2023-02-26T03:48:02.411Z,98426.63
2023-02-26T03:50:45.876Z,98428.97
2023-02-26T03:53:33.354Z,98423.31
2023-02-26T03:56:42.482Z,98434.69
2023-02-26T03:59:15.614Z,98454.03
2023-02-26T04:01:58.806Z,98447.94
2023-02-26T04:05:04.663Z,98452.16
2023-02-26T04:07:32.684Z,98451.22
2023-02-26T04:10:01.261Z,98451.75
2023-02-26T04:12:30.318Z,98442.81
2023-02-26T04:14:58.815Z,98441.00
2023-02-26T04:17:26.636Z,98435.78
2023-02-26T04:19:56.256Z,98433.78
2023-02-26T04:22:27.008Z,98425.97
2023-02-26T04:24:56.510Z,98423.56
2023-02-26T04:27:24.270Z,98424.41
2023-02-26T04:29:52.011Z,98423.31
2023-02-26T04:32:20.683Z,98420.88
2023-02-26T04:34:48.412Z,98435.63
2023-02-26T04:37:16.085Z,98439.47
2023-02-26T04:39:43.771Z,98463.97
2023-02-26T04:42:11.508Z,98479.25
2023-02-26T04:44:41.068Z,98480.75
2023-02-26T04:47:08.919Z,98486.31
2023-02-26T04:49:37.462Z,98500.66
2023-02-26T04:52:06.033Z,98507.59
2023-02-26T04:54:34.570Z,98503.22
2023-02-26T04:57:04.257Z,98497.81
2023-02-26T04:59:32.851Z,98499.31
2023-02-26T05:02:00.725Z,98489.97
2023-02-26T05:04:29.496Z,98491.75
2023-02-26T05:06:59.912Z,98489.81
2023-02-26T05:09:27.727Z,98497.38
2023-02-26T05:11:55.452Z,98502.44
2023-02-26T05:14:25.104Z,98496.34
2023-02-26T05:16:56.314Z,98482.94
2023-02-26T05:19:24.836Z,98498.28
2023-02-26T05:21:53.353Z,98498.38
2023-02-26T05:24:22.060Z,98499.06
2023-02-26T05:26:49.808Z,98505.56
2023-02-26T05:29:18.444Z,98496.66
2023-02-26T05:31:47.061Z,98509.38
2023-02-26T05:34:17.518Z,98518.41
2023-02-26T05:36:45.279Z,98503.41
2023-02-26T05:39:14.261Z,98507.13
2023-02-26T05:41:42.906Z,98519.31
2023-02-26T05:44:10.653Z,98544.41
2023-02-26T05:46:39.434Z,98548.78
2023-02-26T05:49:08.180Z,98538.97
2023-02-26T05:51:36.814Z,98533.63
2023-02-26T05:54:05.825Z,98535.97
2023-02-26T05:56:34.679Z,98539.91
2023-02-26T05:59:05.076Z,98554.84
2023-02-26T06:01:34.290Z,98570.44
2023-02-26T06:04:04.444Z,98570.44
2023-02-26T06:06:34.038Z,98574.75
2023-02-26T06:09:02.908Z,98582.91
2023-02-26T06:11:34.096Z,98596.13
2023-02-26T06:14:03.025Z,98593.53
2023-02-26T06:16:32.900Z,98612.88
2023-02-26T06:19:00.756Z,98600.50
2023-02-26T06:21:29.821Z,98612.72
2023-02-26T06:23:58.505Z,98605.56
2023-02-26T06:26:26.496Z,98604.94
2023-02-26T06:28:56.275Z,98609.28
2023-02-26T06:31:24.219Z,98602.66
2023-02-26T06:33:52.021Z,98606.22
2023-02-26T06:36:20.765Z,98611.81
2023-02-26T06:38:50.185Z,98620.75
2023-02-26T06:41:18.872Z,98623.13
2023-02-26T06:43:46.641Z,98623.69
2023-02-26T06:46:16.115Z,98628.00
2023-02-26T06:48:44.803Z,98628.28
2023-02-26T06:51:14.346Z,98629.94
2023-02-26T06:53:43.860Z,98637.28
2023-02-26T06:56:14.009Z,98632.56
2023-02-26T06:58:43.521Z,98643.22
2023-02-26T07:01:13.045Z,98639.78
2023-02-26T07:03:42.549Z,98637.59
2023-02-26T07:06:26.595Z,98646.81
2023-02-26T07:08:57.007Z,98645.13
2023-02-26T07:11:25.648Z,98636.84
2023-02-26T07:13:53.645Z,98641.63
2023-02-26T07:16:21.409Z,98629.50
2023-02-26T07:18:50.949Z,98632.56
2023-02-26T07:21:20.455Z,98645.97
2023-02-26T07:23:49.200Z,98639.97
2023-02-26T07:26:17.951Z,98651.50
2023-02-26T07:28:46.594Z,98651.03
2023-02-26T07:31:16.822Z,98645.28
2023-02-26T07:33:45.531Z,98645.25
2023-02-26T07:36:13.321Z,98642.97
2023-02-26T07:38:41.120Z,98631.16
2023-02-26T07:41:09.852Z,98638.44
2023-02-26T07:43:37.541Z,98642.44
2023-02-26T07:46:06.300Z,98645.06
2023-02-26T07:48:34.064Z,98648.72
2023-02-26T07:51:01.737Z,98655.28
2023-02-26T07:53:29.457Z,98640.44
2023-02-26T07:55:57.179Z,98642.28
2023-02-26T07:58:25.719Z,98649.94
2023-02-26T08:00:54.441Z,98661.78
2023-02-26T08:03:23.001Z,98658.84
2023-02-26T08:05:50.715Z,98655.09
2023-02-26T08:08:19.297Z,98661.09
2023-02-26T08:10:47.820Z,98659.22
2023-02-26T08:13:16.343Z,98654.84
2023-02-26T08:15:45.233Z,98662.63
2023-02-26T08:18:13.761Z,98670.16
2023-02-26T08:20:42.432Z,98662.63
2023-02-26T08:23:11.438Z,98660.97
2023-02-26T08:25:39.599Z,98664.38
2023-02-26T08:28:08.245Z,98664.91
2023-02-26T08:30:36.893Z,98668.41
2023-02-26T08:33:05.687Z,98676.53
2023-02-26T08:35:34.410Z,98677.97
2023-02-26T08:38:04.738Z,98679.47
2023-02-26T08:40:32.524Z,98682.06
2023-02-26T08:43:00.389Z,98682.28
2023-02-26T08:45:30.020Z,98686.97
2023-02-26T08:47:59.566Z,98681.34
2023-02-26T08:50:28.350Z,98693.03
2023-02-26T08:52:56.470Z,98699.22
2023-02-26T08:55:24.656Z,98702.44
2023-02-26T08:57:53.163Z,98707.31
2023-02-26T09:00:22.549Z,98698.09
2023-02-26T09:02:51.360Z,98705.41
2023-02-26T09:05:20.206Z,98714.75
2023-02-26T09:07:48.837Z,98717.59
2023-02-26T09:10:17.643Z,98730.78
2023-02-26T09:12:47.785Z,98727.28
2023-02-26T09:15:18.348Z,98741.44
2023-02-26T09:17:48.100Z,98741.84
2023-02-26T09:20:18.172Z,98748.00
2023-02-26T09:22:47.652Z,98749.50
2023-02-26T09:25:15.616Z,98745.16
2023-02-26T09:27:44.842Z,98748.25
2023-02-26T09:30:13.727Z,98748.78
2023-02-26T09:32:41.539Z,98756.22
2023-02-26T09:35:10.332Z,98757.44
2023-02-26T09:37:40.332Z,98761.56
2023-02-26T09:40:25.816Z,98761.38
2023-02-26T09:43:13.104Z,98763.81
2023-02-26T09:45:46.201Z,98764.97
2023-02-26T09:48:19.733Z,98761.50
2023-02-26T09:50:56.647Z,98767.75
2023-02-26T09:53:35.161Z,98769.63
2023-02-26T09:56:13.970Z,98785.13
2023-02-26T09:58:46.736Z,98785.28
2023-02-26T10:01:35.200Z,98792.66
2023-02-26T10:04:33.934Z,98796.91
2023-02-26T10:07:29.980Z,98803.78
2023-02-26T10:11:10.823Z,98795.91
2023-02-26T10:17:40.964Z,98799.19
2023-02-26T10:20:56.021Z,98801.63
2023-02-26T10:24:08.446Z,98811.44
2023-02-26T10:26:47.020Z,98810.53
2023-02-26T10:30:10.366Z,98813.13
2023-02-26T10:33:00.617Z,98826.19
2023-02-26T10:35:35.899Z,98828.50
2023-02-26T10:38:17.570Z,98842.25
2023-02-26T10:41:15.978Z,98849.38
2023-02-26T10:44:30.335Z,98837.72
2023-02-26T10:47:46.734Z,98853.81
2023-02-26T10:50:18.584Z,98853.50
2023-02-26T10:52:47.129Z,98853.38
2023-02-26T10:55:34.725Z,98851.03
2023-02-26T10:58:17.018Z,98858.94
2023-02-26T11:00:54.464Z,98859.63
2023-02-26T11:03:35.114Z,98872.19
2023-02-26T11:06:06.744Z,98869.38
2023-02-26T11:08:44.355Z,98869.31
2023-02-26T11:12:07.821Z,98878.31
2023-02-26T11:14:36.618Z,98874.66
2023-02-26T11:17:29.569Z,98866.50
2023-02-26T11:20:15.308Z,98876.28
2023-02-26T11:22:53.873Z,98884.84
2023-02-26T11:25:29.468Z,98886.34
2023-02-26T11:28:32.879Z,98873.16
2023-02-26T11:31:12.275Z,98873.25
2023-02-26T11:33:46.302Z,98879.38
2023-02-26T11:36:22.098Z,98872.69
2023-02-26T11:39:23.687Z,98885.56
2023-02-26T11:41:57.847Z,98881.56
2023-02-26T11:44:43.450Z,98898.56
2023-02-26T11:47:30.649Z,98901.69
2023-02-26T11:50:15.048Z,98892.47
2023-02-26T11:52:46.996Z,98898.38
2023-02-26T11:55:37.318Z,98899.59
2023-02-26T11:58:24.509Z,98906.56
2023-02-26T12:01:02.907Z,98908.28
2023-02-26T12:03:42.770Z,98907.19
2023-02-26T12:06:22.777Z,98908.59
2023-02-26T12:08:51.756Z,98911.63
2023-02-26T12:11:38.751Z,98915.84
2023-02-26T12:14:27.197Z,98916.25
2023-02-26T12:17:43.415Z,98912.28
2023-02-26T12:20:41.477Z,98921.81
2023-02-26T12:23:44.791Z,98918.41
2023-02-26T12:27:16.895Z,98916.19
2023-02-26T12:30:40.049Z,98916.41
2023-02-26T12:33:32.846Z,98923.16
2023-02-26T12:36:49.807Z,98923.88
2023-02-26T12:39:46.143Z,98939.91
2023-02-26T12:42:49.225Z,98937.47
2023-02-26T12:46:15.510Z,98942.59
2023-02-26T12:49:17.775Z,98943.00
2023-02-26T12:52:46.979Z,98943.78
2023-02-26T12:55:47.872Z,98957.69
2023-02-26T12:58:44.535Z,98962.88
2023-02-26T13:02:18.421Z,98959.59
2023-02-26T13:05:37.176Z,98958.88
2023-02-26T13:08:43.302Z,98968.56
2023-02-26T13:11:35.375Z,98967.59
2023-02-26T13:14:56.911Z,98972.50
2023-02-26T13:17:54.412Z,98981.38
2023-02-26T13:20:29.185Z,98975.88
2023-02-26T13:23:13.661Z,98984.78
2023-02-26T13:26:03.120Z,98977.03
2023-02-26T13:29:00.986Z,98981.50
2023-02-26T13:31:57.817Z,98987.91
2023-02-26T13:35:03.483Z,98985.28
2023-02-26T13:37:45.655Z,98986.38
2023-02-26T13:40:55.255Z,98989.94
2023-02-26T13:44:04.143Z,98999.59
2023-02-26T13:47:16.885Z,98999.22
2023-02-26T13:50:33.118Z,99004.22
2023-02-26T13:53:38.758Z,98999.53
2023-02-26T13:56:32.210Z,98994.66
2023-02-26T13:59:18.236Z,99001.22
2023-02-26T14:02:01.446Z,98998.66
2023-02-26T14:04:51.814Z,99002.97
2023-02-26T14:08:28.423Z,99005.25
2023-02-26T14:11:04.426Z,99016.63
2023-02-26T14:13:41.876Z,99009.06
2023-02-26T14:16:28.817Z,99015.59
2023-02-26T14:19:32.910Z,99012.09
2023-02-26T14:22:41.814Z,99022.00
2023-02-26T14:25:45.166Z,99025.44
2023-02-26T14:28:44.592Z,99025.81
2023-02-26T14:31:17.814Z,99031.06
2023-02-26T14:34:25.741Z,99034.03
2023-02-26T14:37:13.014Z,99036.53
2023-02-26T14:39:50.581Z,99043.16
2023-02-26T14:42:25.171Z,99040.66
2023-02-26T14:45:17.435Z,99043.75
2023-02-26T14:47:49.579Z,99049.38
2023-02-26T14:50:23.118Z,99049.78
2023-02-26T14:53:28.499Z,99046.84
2023-02-26T14:56:34.510Z,99052.13
2023-02-26T14:59:57.568Z,99045.38
2023-02-26T15:03:24.273Z,99055.50
2023-02-26T15:06:08.479Z,99058.78
2023-02-26T15:09:19.044Z,99062.69
2023-02-26T15:12:37.104Z,99062.22
2023-02-26T15:15:48.525Z,99076.72
2023-02-26T15:18:49.294Z,99074.94
2023-02-26T15:21:36.930Z,99088.31
2023-02-26T15:24:09.274Z,99089.81
2023-02-26T15:26:53.841Z,99092.25
2023-02-26T15:29:37.565Z,99088.56
2023-02-26T15:32:26.157Z,99094.28
2023-02-26T15:35:22.344Z,99104.06
2023-02-26T15:38:00.129Z,99099.28
2023-02-26T15:40:38.220Z,99116.38
2023-02-26T15:43:11.165Z,99111.13
2023-02-26T15:45:46.922Z,99103.06
2023-02-26T15:48:35.469Z,99115.91
2023-02-26T15:51:10.487Z,99111.84
2023-02-26T15:53:53.023Z,99114.94
2023-02-26T15:56:37.098Z,99119.25
2023-02-26T15:59:14.465Z,99122.19
2023-02-26T16:01:43.305Z,99124.75
2023-02-26T16:04:20.787Z,99130.22
2023-02-26T16:06:59.779Z,99141.19
2023-02-26T16:09:39.173Z,99138.19
2023-02-26T16:12:21.402Z,99151.34
2023-02-26T16:15:12.600Z,99160.25
2023-02-26T16:17:45.352Z,99166.31
2023-02-26T16:20:22.955Z,99158.50
2023-02-26T16:23:04.608Z,99168.16
2023-02-26T16:25:53.923Z,99165.84
2023-02-26T16:28:32.420Z,99172.25
2023-02-26T16:31:04.848Z,99184.03
2023-02-26T16:33:35.655Z,99183.69
2023-02-26T16:36:17.806Z,99187.28
2023-02-26T16:41:35.114Z,99192.50
2023-02-26T16:44:31.466Z,99194.81
2023-02-26T16:47:03.065Z,99205.56
2023-02-26T16:49:37.757Z,99197.34
2023-02-26T16:52:07.764Z,99202.34
2023-02-26T16:54:45.732Z,99198.19
2023-02-26T16:57:24.523Z,99201.63
2023-02-26T17:00:01.654Z,99212.25
2023-02-26T17:02:36.466Z,99215.19
2023-02-26T17:05:29.402Z,99213.78
2023-02-26T17:08:19.076Z,99214.81
2023-02-26T17:11:05.073Z,99214.13
2023-02-26T17:13:36.202Z,99224.88
2023-02-26T17:16:10.120Z,99225.44
2023-02-26T17:18:38.074Z,99237.88
2023-02-26T17:21:06.533Z,99232.19
2023-02-26T17:23:39.482Z,99243.16
2023-02-26T17:26:07.745Z,99243.94
2023-02-26T17:28:42.223Z,99237.69
2023-02-26T17:31:12.727Z,99240.06
2023-02-26T17:33:45.650Z,99241.09
2023-02-26T17:36:18.846Z,99241.38
2023-02-26T17:38:47.767Z,99244.44
2023-02-26T17:41:20.216Z,99243.06
2023-02-26T17:43:48.029Z,99248.00
2023-02-26T17:46:16.723Z,99251.78
2023-02-26T17:48:45.354Z,99248.31
2023-02-26T17:51:16.074Z,99249.00
2023-02-26T17:53:46.754Z,99252.84
2023-02-26T17:56:32.782Z,99247.16
2023-02-26T17:59:02.499Z,99238.41
2023-02-26T18:01:30.630Z,99245.97
2023-02-26T18:04:01.124Z,99244.31
2023-02-26T18:06:35.987Z,99251.28
2023-02-26T18:09:06.730Z,99245.41
2023-02-26T18:11:35.475Z,99239.88
2023-02-26T18:14:03.407Z,99240.66
2023-02-26T18:16:43.661Z,99242.00
2023-02-26T18:19:16.887Z,99249.13
2023-02-26T18:21:45.464Z,99257.03
2023-02-26T18:24:14.240Z,99259.97
2023-02-26T18:26:42.896Z,99258.97
2023-02-26T18:29:13.700Z,99264.72
2023-02-26T18:31:42.807Z,99273.28
2023-02-26T18:34:13.335Z,99267.81
2023-02-26T18:36:42.229Z,99271.97
2023-02-26T18:39:15.538Z,99279.00
2023-02-26T18:41:43.283Z,99279.41
2023-02-26T18:44:12.220Z,99274.09
2023-02-26T18:46:45.006Z,99274.47
2023-02-26T18:49:21.149Z,99280.66
2023-02-26T18:51:49.762Z,99287.84
2023-02-26T18:54:17.731Z,99282.28
2023-02-26T18:56:47.238Z,99291.25
2023-02-26T18:59:15.903Z,99284.88
2023-02-26T19:01:44.743Z,99292.41
2023-02-26T19:04:13.938Z,99291.34
2023-02-26T19:06:43.311Z,99289.28
2023-02-26T19:09:11.992Z,99297.00
2023-02-26T19:11:39.773Z,99295.47
2023-02-26T19:14:07.475Z,99289.53
2023-02-26T19:16:38.335Z,99291.94
2023-02-26T19:19:11.767Z,99287.47
2023-02-26T19:21:41.206Z,99294.59
2023-02-26T19:24:12.350Z,99298.91
2023-02-26T19:26:41.318Z,99303.25
2023-02-26T19:29:15.827Z,99312.84
2023-02-26T19:31:44.282Z,99306.22
2023-02-26T19:34:14.311Z,99308.63
2023-02-26T19:36:48.259Z,99316.63
2023-02-26T19:39:18.867Z,99322.28
2023-02-26T19:41:50.137Z,99328.97
2023-02-26T19:44:18.336Z,99332.25
2023-02-26T19:46:48.670Z,99341.38
2023-02-26T19:49:18.912Z,99330.53
2023-02-26T19:51:47.683Z,99332.00
2023-02-26T19:54:16.947Z,99343.47
2023-02-26T19:56:46.761Z,99348.84
2023-02-26T19:59:17.069Z,99343.28
2023-02-26T20:01:49.378Z,99348.56
2023-02-26T20:04:19.685Z,99347.03
2023-02-26T20:06:49.186Z,99353.72
2023-02-26T20:09:19.216Z,99342.31
2023-02-26T20:11:47.433Z,99354.72
2023-02-26T20:14:16.286Z,99354.91
2023-02-26T20:16:45.908Z,99362.03
2023-02-26T20:19:14.600Z,99363.50
2023-02-26T20:21:42.518Z,99369.25
2023-02-26T20:24:11.563Z,99375.56
2023-02-26T20:26:41.271Z,99380.22
2023-02-26T20:29:10.813Z,99372.81
2023-02-26T20:31:40.445Z,99381.94
2023-02-26T20:34:10.025Z,99386.34
2023-02-26T20:36:39.763Z,99392.22
2023-02-26T20:39:08.569Z,99390.94
2023-02-26T20:41:37.321Z,99399.72
2023-02-26T20:44:06.858Z,99393.59
2023-02-26T20:46:38.963Z,99399.53
2023-02-26T20:49:11.801Z,99403.63
2023-02-26T20:51:43.969Z,99408.81
2023-02-26T20:54:14.874Z,99413.91
2023-02-26T20:56:45.409Z,99414.00
2023-02-26T20:59:13.183Z,99413.69
2023-02-26T21:01:40.962Z,99406.94
2023-02-26T21:04:10.154Z,99411.03
2023-02-26T21:06:38.838Z,99412.97
2023-02-26T21:09:11.105Z,99418.63
2023-02-26T21:11:40.545Z,99420.41
2023-02-26T21:14:11.104Z,99414.53
2023-02-26T21:16:41.545Z,99410.53
2023-02-26T21:19:10.320Z,99425.03
2023-02-26T21:21:39.104Z,99426.22
2023-02-26T21:24:08.409Z,99426.28
2023-02-26T21:26:36.177Z,99432.00
2023-02-26T21:29:05.043Z,99424.50
2023-02-26T21:31:33.847Z,99418.13
2023-02-26T21:34:17.300Z,99416.31
2023-02-26T21:36:52.089Z,99418.09
2023-02-26T21:39:21.576Z,99422.44
2023-02-26T21:41:50.301Z,99413.34
2023-02-26T21:44:19.753Z,99423.09
2023-02-26T21:46:49.174Z,99417.38
2023-02-26T21:49:17.867Z,99419.25
2023-02-26T21:51:46.326Z,99423.63
2023-02-26T21:54:15.027Z,99428.09
2023-02-26T21:56:43.772Z,99429.16
2023-02-26T21:59:12.478Z,99432.38
2023-02-26T22:01:41.265Z,99436.03
2023-02-26T22:04:09.964Z,99436.78
2023-02-26T22:06:37.983Z,99455.34
2023-02-26T22:09:07.491Z,99456.44
2023-02-26T22:11:35.230Z,99460.47
2023-02-26T22:14:04.023Z,99454.03
2023-02-26T22:16:33.092Z,99455.28
2023-02-26T22:19:01.050Z,99453.63
2023-02-26T22:21:29.841Z,99459.28
2023-02-26T22:24:00.440Z,99463.53
2023-02-26T22:26:30.020Z,99460.22
2023-02-26T22:29:00.231Z,99461.81
2023-02-26T22:31:30.175Z,99462.75
2023-02-26T22:34:00.131Z,99463.97
2023-02-26T22:36:30.225Z,99462.47
2023-02-26T22:38:59.426Z,99456.00
2023-02-26T22:41:28.129Z,99452.69
2023-02-26T22:43:56.800Z,99456.44
2023-02-26T22:46:28.439Z,99461.81
2023-02-26T22:48:57.126Z,99464.00
2023-02-26T22:51:26.262Z,99464.00
2023-02-26T22:53:55.145Z,99468.88
2023-02-26T22:56:22.985Z,99469.28
2023-02-26T22:58:50.924Z,99468.53
2023-02-26T23:01:19.404Z,99473.63
2023-02-26T23:03:48.183Z,99468.13
2023-02-26T23:06:16.606Z,99467.66
2023-02-26T23:08:45.427Z,99468.88
2023-02-26T23:11:13.204Z,99464.88
2023-02-26T23:13:40.990Z,99475.84
2023-02-26T23:16:11.937Z,99479.28
2023-02-26T23:18:39.893Z,99483.59
2023-02-26T23:21:08.577Z,99486.25
2023-02-26T23:23:37.240Z,99481.13
2023-02-26T23:26:06.875Z,99495.53
2023-02-26T23:28:36.239Z,99493.66
2023-02-26T23:31:05.590Z,99496.22
2023-02-26T23:33:34.312Z,99502.69
2023-02-26T23:36:02.895Z,99507.22
2023-02-26T23:38:30.793Z,99510.63
2023-02-26T23:40:59.589Z,99511.50
2023-02-26T23:43:28.248Z,99517.19
2023-02-26T23:45:56.889Z,99511.69
2023-02-26T23:48:25.811Z,99519.72
2023-02-26T23:50:56.044Z,99519.91
2023-02-26T23:53:24.758Z,99522.78
2023-02-26T23:55:58.443Z,99509.59
2023-02-26T23:58:29.887Z,99520.00
